Terminal Aerodrome Forecast
Issued by NWS Grand Forks, ND

Home | Current Version | Previous Version | Text Only | Print | Product List | Glossary On
Versions: 1 2 3 4 5 6 7 8 9 10 11 12
000
FTUS43 KFGF 190304 AAA
TAFGFK
TAF AMD
KGFK 190304Z 1903/1924 27011KT P6SM FEW250 WS020/28040KT
     FM190700 24005KT P6SM SKC
     FM191400 17009KT P6SM FEW250
     FM192000 19013KT P6SM FEW250=

USA.gov is the U.S. government's official web portal to all federal, state and local government web resources and services.